Main page
METAR-TAF:

METAR-TAF

Airports :

Liverpool, England

Liverpool John Lennon Airport

latitude: 53-20N, longitude: 002-51W, elevation: 26 m

Current weather observation

The report was made 26 minutes ago, at 18:20 UTC
Wind 10 kt from the East
Temperature 12°C
Humidity 58%
Pressure 1024 hPa
Visibility 10 km or more
no clouds below 1500 m and no cumulonimbus

METAR: EGGP 261820Z 10010KT CAVOK 12/04 Q1024

Time: 19:46 (18:46 UTC)

Forecast

The report was made 1 hour and 50 minutes ago, at 16:56 UTC
Forecast valid from 26 at 18 UTC to 27 at 18 UTC
Wind 8 kt from the East
Visibility 10 km or more
Few clouds at a height of 4000 ft
Probability 30% :
Temporary
from 27 at 03 UTC to 27 at 10 UTC
Broken clouds at a height of 900 ft
Becoming
from 27 at 09 UTC to 27 at 12 UTC
Wind 10 kt from the South/Southeast

TAF: EGGP 261656Z 2618/2718 09008KT 9999 FEW040 PROB30 TEMPO 2703/2710 BKN009 BECMG 2709/2712 15010KT

Weather observations and forecasts of more than 4000 airports (METAR and TAF reports).

The available stations are represented by yellow and red dots on the map.

Hover mouse over dot to see the name of the station.

Then click to see weather observations and forecasts.

To change the map : click on the green buttons with a black cross to zoom in, on the green button with a dash to zoom out, or on the green arrows for adjacent maps.


METAR-TAF: